createdAt,value
2019-06-08T00:02:35.587Z,21.34
2019-06-08T00:06:39.959Z,21.29
2019-06-08T00:10:44.301Z,21.22
2019-06-08T00:14:48.631Z,21.14
2019-06-08T00:18:52.926Z,21.06
2019-06-08T00:22:57.420Z,21.03
2019-06-08T00:27:01.719Z,20.99
2019-06-08T00:31:06.312Z,20.97
2019-06-08T00:35:10.858Z,20.95
2019-06-08T00:39:15.370Z,20.91
2019-06-08T00:43:19.796Z,20.85
2019-06-08T00:47:24.683Z,20.79
2019-06-08T00:51:29.788Z,20.74
2019-06-08T00:55:34.320Z,20.62
2019-06-08T00:59:38.625Z,20.51
2019-06-08T01:03:43.213Z,20.45
2019-06-08T01:07:47.519Z,20.39
2019-06-08T01:11:51.899Z,20.36
2019-06-08T01:15:56.195Z,20.35
2019-06-08T01:20:00.630Z,20.30
2019-06-08T01:24:05.057Z,20.28
2019-06-08T01:28:09.413Z,20.23
2019-06-08T01:32:14.212Z,20.20
2019-06-08T01:36:18.813Z,20.18
2019-06-08T01:40:23.346Z,20.15
2019-06-08T01:44:28.081Z,20.10
2019-06-08T01:48:32.554Z,20.06
2019-06-08T01:52:37.333Z,20.02
2019-06-08T01:56:41.684Z,19.98
2019-06-08T02:00:46.242Z,19.98
2019-06-08T02:04:51.065Z,19.93
2019-06-08T02:08:55.378Z,19.86
2019-06-08T02:12:59.706Z,19.82
2019-06-08T02:17:04.004Z,19.74
2019-06-08T02:21:13.380Z,19.70
2019-06-08T02:25:18.502Z,19.61
2019-06-08T02:29:22.808Z,19.51
2019-06-08T02:33:28.271Z,19.44
2019-06-08T02:37:33.218Z,19.37
2019-06-08T02:41:40.081Z,19.36
2019-06-08T02:45:44.520Z,19.33
2019-06-08T02:49:48.937Z,19.36
2019-06-08T02:53:53.252Z,19.36
2019-06-08T02:57:57.725Z,19.31
2019-06-08T03:02:02.940Z,19.19
2019-06-08T03:06:07.779Z,19.14
2019-06-08T03:10:13.255Z,19.15
2019-06-08T03:14:19.864Z,19.20
2019-06-08T03:18:24.224Z,19.31
2019-06-08T03:22:28.552Z,19.45
2019-06-08T03:26:34.277Z,19.59
2019-06-08T03:30:45.539Z,19.71
2019-06-08T03:34:53.899Z,19.79
2019-06-08T03:38:51.007Z,19.82
2019-06-08T03:42:57.186Z,19.84
2019-06-08T03:47:01.461Z,19.83
2019-06-08T03:51:06.637Z,19.84
2019-06-08T03:55:12.441Z,19.85
2019-06-08T03:59:16.966Z,19.86
2019-06-08T04:03:21.287Z,19.86
2019-06-08T04:07:25.810Z,19.85
2019-06-08T04:11:30.128Z,19.88
2019-06-08T04:15:35.420Z,19.91
2019-06-08T04:19:39.933Z,19.93
2019-06-08T04:23:45.397Z,20.00
2019-06-08T04:27:51.148Z,20.04
2019-06-08T04:31:55.827Z,20.07
2019-06-08T04:36:00.182Z,20.11
2019-06-08T04:40:05.079Z,20.12
2019-06-08T04:44:09.479Z,20.11
2019-06-08T04:48:13.796Z,20.11
2019-06-08T04:52:18.139Z,20.10
2019-06-08T04:56:22.524Z,20.10
2019-06-08T05:00:31.187Z,20.12
2019-06-08T05:04:32.972Z,20.17
2019-06-08T05:08:38.938Z,20.21
2019-06-08T05:12:45.390Z,20.25
2019-06-08T05:16:49.873Z,20.31
2019-06-08T05:20:54.390Z,20.42
2019-06-08T05:24:58.950Z,20.45
2019-06-08T05:29:03.334Z,20.53
2019-06-08T05:33:07.842Z,20.57
2019-06-08T05:37:12.170Z,20.66
2019-06-08T05:41:16.528Z,20.77
2019-06-08T05:45:20.872Z,20.87
2019-06-08T05:49:25.199Z,20.94
2019-06-08T05:53:29.667Z,21.02
2019-06-08T05:57:33.984Z,21.10
2019-06-08T06:01:40.367Z,21.17
2019-06-08T06:05:44.805Z,21.22
2019-06-08T06:09:49.125Z,21.24
2019-06-08T06:13:53.648Z,21.28
2019-06-08T06:17:57.941Z,21.38
2019-06-08T06:22:02.269Z,21.45
2019-06-08T06:26:06.799Z,21.52
2019-06-08T06:30:12.717Z,21.55
2019-06-08T06:34:17.272Z,21.62
2019-06-08T06:38:21.643Z,21.73
2019-06-08T06:42:25.973Z,21.76
2019-06-08T06:46:31.119Z,21.85
2019-06-08T06:50:35.458Z,21.97
2019-06-08T06:54:39.940Z,22.04
2019-06-08T06:58:45.068Z,22.09
2019-06-08T07:02:50.044Z,22.18
2019-06-08T07:06:54.570Z,22.23
2019-06-08T07:10:58.873Z,22.34
2019-06-08T07:15:03.192Z,22.45
2019-06-08T07:19:07.509Z,22.56
2019-06-08T07:23:12.026Z,22.72
2019-06-08T07:27:16.340Z,22.77
2019-06-08T07:31:20.684Z,22.85
2019-06-08T07:35:24.970Z,22.91
2019-06-08T07:39:29.342Z,22.97
2019-06-08T07:43:33.692Z,23.11
2019-06-08T07:47:38.015Z,23.19
2019-06-08T07:51:57.795Z,23.31
2019-06-08T07:55:49.967Z,23.46
2019-06-08T07:59:54.661Z,23.51
2019-06-08T08:04:00.424Z,23.63
2019-06-08T08:08:05.018Z,23.75
2019-06-08T08:12:12.196Z,23.79
2019-06-08T08:16:15.395Z,23.79
2019-06-08T08:20:19.698Z,23.84
2019-06-08T08:24:24.010Z,23.85
2019-06-08T08:28:28.455Z,23.95
2019-06-08T08:32:32.784Z,24.10
2019-06-08T08:36:38.105Z,24.19
2019-06-08T08:40:42.951Z,24.18
2019-06-08T08:44:48.620Z,24.23
2019-06-08T08:48:54.244Z,24.25
2019-06-08T08:53:00.628Z,24.23
2019-06-08T08:57:05.319Z,24.31
2019-06-08T09:01:11.072Z,24.39
2019-06-08T09:05:17.985Z,24.44
2019-06-08T09:09:21.837Z,24.53
2019-06-08T09:13:28.155Z,24.55
2019-06-08T09:17:32.278Z,24.57
2019-06-08T09:21:38.379Z,24.64
2019-06-08T09:25:42.835Z,24.68
2019-06-08T09:29:48.222Z,24.68
2019-06-08T09:33:57.124Z,24.68
2019-06-08T09:38:01.098Z,24.64
2019-06-08T09:42:05.352Z,24.68
2019-06-08T09:46:09.903Z,24.71
2019-06-08T09:50:14.525Z,24.76
2019-06-08T09:54:18.987Z,24.81
2019-06-08T09:58:23.637Z,24.81
2019-06-08T10:02:28.423Z,24.87
2019-06-08T10:06:32.858Z,24.89
2019-06-08T10:10:37.195Z,24.94
2019-06-08T10:14:41.521Z,25.02
2019-06-08T10:18:51.178Z,25.00
2019-06-08T10:22:52.140Z,25.02
2019-06-08T10:26:57.199Z,24.97
2019-06-08T10:31:03.403Z,24.89
2019-06-08T10:35:10.421Z,24.90
2019-06-08T10:39:14.884Z,24.84
2019-06-08T10:43:20.058Z,24.90
2019-06-08T10:47:24.840Z,24.96
2019-06-08T10:51:29.261Z,25.00
2019-06-08T10:55:33.588Z,25.04
2019-06-08T10:59:40.336Z,25.02
2019-06-08T11:03:44.142Z,24.90
2019-06-08T11:07:48.479Z,24.91
2019-06-08T11:11:52.841Z,24.99
2019-06-08T11:15:58.662Z,24.87
2019-06-08T11:20:04.814Z,24.92
2019-06-08T11:24:21.615Z,25.10
2019-06-08T11:28:18.428Z,25.26
2019-06-08T11:32:22.591Z,25.33
2019-06-08T11:36:28.168Z,25.27
2019-06-08T11:40:32.614Z,25.26
2019-06-08T11:44:39.022Z,25.35
2019-06-08T11:48:42.941Z,25.37
2019-06-08T11:52:49.299Z,25.40
2019-06-08T11:56:57.376Z,25.31
2019-06-08T12:01:07.199Z,25.28
2019-06-08T12:05:12.928Z,25.22
2019-06-08T12:09:18.923Z,25.19
2019-06-08T12:13:23.842Z,25.28
2019-06-08T12:17:28.588Z,25.33
2019-06-08T12:21:32.909Z,25.26
2019-06-08T12:25:37.869Z,25.16
2019-06-08T12:29:42.304Z,25.06
2019-06-08T12:33:48.757Z,25.01
2019-06-08T12:37:52.828Z,24.98
2019-06-08T12:41:58.309Z,25.04
2019-06-08T12:46:02.812Z,25.04
2019-06-08T12:50:08.892Z,25.13
2019-06-08T12:54:14.273Z,25.17
2019-06-08T12:58:21.796Z,25.16
2019-06-08T13:02:24.965Z,25.27
2019-06-08T13:06:29.670Z,25.33
2019-06-08T13:10:33.992Z,25.29
2019-06-08T13:14:38.646Z,25.22
2019-06-08T13:18:43.181Z,25.19
2019-06-08T13:22:48.322Z,25.19
2019-06-08T13:26:52.661Z,25.13
2019-06-08T13:30:58.175Z,25.06
2019-06-08T13:35:02.717Z,25.09
2019-06-08T13:39:09.894Z,25.16
2019-06-08T13:43:15.280Z,25.16
2019-06-08T13:47:21.829Z,25.07
2019-06-08T13:51:28.154Z,25.09
2019-06-08T13:55:47.749Z,25.12
2019-06-08T13:59:39.078Z,25.15
2019-06-08T14:03:43.879Z,25.16
2019-06-08T14:07:48.658Z,25.18
2019-06-08T14:11:53.010Z,25.18
2019-06-08T14:15:58.563Z,25.14
2019-06-08T14:20:03.085Z,25.12
2019-06-08T14:24:07.806Z,25.11
2019-06-08T14:28:12.185Z,25.10
2019-06-08T14:32:18.892Z,25.10
2019-06-08T14:36:24.290Z,25.09
2019-06-08T14:40:32.685Z,24.99
2019-06-08T14:44:37.906Z,24.89
2019-06-08T14:48:45.095Z,24.90
2019-06-08T14:52:50.271Z,24.95
2019-06-08T14:56:53.808Z,25.00
2019-06-08T15:00:58.115Z,24.99
2019-06-08T15:05:02.677Z,24.95
2019-06-08T15:09:08.616Z,24.89
2019-06-08T15:13:12.994Z,24.80
2019-06-08T15:17:17.282Z,24.74
2019-06-08T15:21:24.138Z,24.71
2019-06-08T15:25:31.144Z,24.69
2019-06-08T15:29:33.855Z,24.69
2019-06-08T15:33:38.500Z,24.75
2019-06-08T15:37:42.814Z,24.79
2019-06-08T15:41:48.840Z,24.77
2019-06-08T15:45:53.225Z,24.71
2019-06-08T15:49:58.780Z,24.68
2019-06-08T15:54:03.285Z,24.70
2019-06-08T15:58:08.940Z,24.72
2019-06-08T16:02:13.638Z,24.73
2019-06-08T16:06:17.948Z,24.75
2019-06-08T16:10:22.340Z,24.77
2019-06-08T16:14:27.017Z,24.75
2019-06-08T16:18:31.726Z,24.70
2019-06-08T16:22:36.682Z,24.73
2019-06-08T16:26:52.972Z,24.73
2019-06-08T16:30:47.444Z,24.69
2019-06-08T16:34:52.002Z,24.65
2019-06-08T16:38:56.430Z,24.67
2019-06-08T16:43:00.770Z,24.67
2019-06-08T16:47:05.213Z,24.65
2019-06-08T16:51:09.517Z,24.69
2019-06-08T16:55:14.007Z,24.76
2019-06-08T16:59:18.325Z,24.72
2019-06-08T17:03:22.680Z,24.69
2019-06-08T17:07:27.508Z,24.66
2019-06-08T17:11:32.010Z,24.65
2019-06-08T17:15:36.391Z,24.64
2019-06-08T17:19:40.748Z,24.68
2019-06-08T17:23:45.072Z,24.73
2019-06-08T17:27:49.483Z,24.73
2019-06-08T17:31:54.238Z,24.78
2019-06-08T17:35:58.548Z,24.83
2019-06-08T17:40:02.996Z,24.85
2019-06-08T17:44:07.560Z,24.80
2019-06-08T17:48:12.093Z,24.76
2019-06-08T17:52:16.634Z,24.76
2019-06-08T17:56:21.056Z,24.74
2019-06-08T18:00:25.461Z,24.74
2019-06-08T18:04:29.821Z,24.70
2019-06-08T18:08:34.123Z,24.67
2019-06-08T18:12:42.559Z,24.65
2019-06-08T18:16:47.820Z,24.60
2019-06-08T18:20:52.296Z,24.54
2019-06-08T18:24:58.189Z,24.49
2019-06-08T18:29:02.721Z,24.42
2019-06-08T18:33:07.423Z,24.35
2019-06-08T18:37:12.530Z,24.28
2019-06-08T18:41:17.726Z,24.19
2019-06-08T18:45:22.495Z,24.09
2019-06-08T18:49:28.840Z,23.96
2019-06-08T18:53:49.127Z,23.83
2019-06-08T18:57:41.042Z,23.78
2019-06-08T19:01:48.691Z,23.74
2019-06-08T19:05:52.519Z,23.67
2019-06-08T19:09:58.964Z,23.59
2019-06-08T19:14:03.491Z,23.54
2019-06-08T19:18:08.316Z,23.47
2019-06-08T19:22:12.711Z,23.42
2019-06-08T19:26:17.598Z,23.37
2019-06-08T19:30:24.326Z,23.31
2019-06-08T19:34:32.187Z,23.22
2019-06-08T19:38:34.219Z,23.13
2019-06-08T19:42:47.385Z,23.06
2019-06-08T19:46:47.559Z,23.02
2019-06-08T19:50:54.082Z,22.93
2019-06-08T19:54:58.141Z,22.87
2019-06-08T19:59:05.122Z,22.84
2019-06-08T20:03:08.752Z,22.78
2019-06-08T20:07:13.181Z,22.75
2019-06-08T20:11:17.711Z,22.69
2019-06-08T20:15:22.219Z,22.61
2019-06-08T20:19:27.950Z,22.52
2019-06-08T20:23:32.576Z,22.47
2019-06-08T20:27:37.334Z,22.40
2019-06-08T20:31:41.801Z,22.31
2019-06-08T20:35:48.113Z,22.25
2019-06-08T20:40:04.279Z,22.19
2019-06-08T20:43:58.478Z,22.13
2019-06-08T20:48:02.950Z,22.07
2019-06-08T20:52:08.590Z,22.01
2019-06-08T20:56:13.590Z,21.95
2019-06-08T21:00:18.081Z,21.89
2019-06-08T21:04:22.853Z,21.83
2019-06-08T21:08:28.198Z,21.79
2019-06-08T21:12:32.679Z,21.77
2019-06-08T21:16:38.255Z,21.77
2019-06-08T21:20:42.741Z,21.74
2019-06-08T21:24:50.482Z,21.72
2019-06-08T21:28:55.554Z,21.71
2019-06-08T21:33:00.902Z,21.70
2019-06-08T21:37:05.535Z,21.66
2019-06-08T21:45:13.097Z,21.59
2019-06-08T21:49:18.223Z,21.57
2019-06-08T21:53:22.904Z,21.54
2019-06-08T21:57:27.737Z,21.55
2019-06-08T22:01:33.558Z,21.55
2019-06-08T22:05:38.228Z,21.59
2019-06-08T22:09:42.645Z,21.61
2019-06-08T22:13:47.694Z,21.62
2019-06-08T22:17:53.110Z,21.61
2019-06-08T22:21:59.786Z,21.62
2019-06-08T22:26:03.731Z,21.61
2019-06-08T22:30:13.435Z,21.58
2019-06-08T22:34:17.344Z,21.52
2019-06-08T22:38:21.056Z,21.43
2019-06-08T22:42:25.559Z,21.39
2019-06-08T22:46:30.050Z,21.34
2019-06-08T22:50:34.376Z,21.27
2019-06-08T22:54:38.881Z,21.22
2019-06-08T22:58:43.337Z,21.14
2019-06-08T23:02:48.570Z,21.07
2019-06-08T23:06:54.848Z,20.97
2019-06-08T23:11:00.886Z,20.91
2019-06-08T23:15:07.715Z,20.88
2019-06-08T23:19:11.621Z,20.84
2019-06-08T23:23:17.842Z,20.84
2019-06-08T23:27:22.351Z,20.81
2019-06-08T23:31:29.106Z,20.80
2019-06-08T23:35:56.691Z,20.83
2019-06-08T23:39:39.468Z,20.81
2019-06-08T23:43:43.772Z,20.82
2019-06-08T23:47:48.308Z,20.78
2019-06-08T23:51:52.605Z,20.78
2019-06-08T23:55:59.490Z,20.76
